sensor_id;sensor_type;location;lat;lon;timestamp;P1;durP1;ratioP1;P2;durP2;ratioP2
29838;SDS011;18669;53.356;-1.464;2022-12-18T00:02:03;11.30;;;6.75;;
29838;SDS011;18669;53.356;-1.464;2022-12-18T00:04:29;10.48;;;5.63;;
29838;SDS011;18669;53.356;-1.464;2022-12-18T00:06:57;15.25;;;5.70;;
29838;SDS011;18669;53.356;-1.464;2022-12-18T00:09:29;6.53;;;5.35;;
29838;SDS011;18669;53.356;-1.464;2022-12-18T00:14:21;10.45;;;5.90;;
29838;SDS011;18669;53.356;-1.464;2022-12-18T00:16:47;9.43;;;5.57;;
29838;SDS011;18669;53.356;-1.464;2022-12-18T00:19:14;10.57;;;5.80;;
29838;SDS011;18669;53.356;-1.464;2022-12-18T00:21:41;9.30;;;5.50;;
29838;SDS011;18669;53.356;-1.464;2022-12-18T00:24:08;11.60;;;6.18;;
29838;SDS011;18669;53.356;-1.464;2022-12-18T00:26:35;12.15;;;5.75;;
29838;SDS011;18669;53.356;-1.464;2022-12-18T00:29:07;10.23;;;5.68;;
29838;SDS011;18669;53.356;-1.464;2022-12-18T00:31:37;13.02;;;6.55;;
29838;SDS011;18669;53.356;-1.464;2022-12-18T00:34:03;12.63;;;6.47;;
29838;SDS011;18669;53.356;-1.464;2022-12-18T00:36:30;10.02;;;6.85;;
29838;SDS011;18669;53.356;-1.464;2022-12-18T00:38:59;11.98;;;7.10;;
29838;SDS011;18669;53.356;-1.464;2022-12-18T00:41:27;14.18;;;7.53;;
29838;SDS011;18669;53.356;-1.464;2022-12-18T00:44:13;9.88;;;6.25;;
29838;SDS011;18669;53.356;-1.464;2022-12-18T00:46:41;10.32;;;6.82;;
29838;SDS011;18669;53.356;-1.464;2022-12-18T00:49:08;11.52;;;7.07;;
29838;SDS011;18669;53.356;-1.464;2022-12-18T00:51:38;16.52;;;7.10;;
29838;SDS011;18669;53.356;-1.464;2022-12-18T00:54:05;10.63;;;6.60;;
29838;SDS011;18669;53.356;-1.464;2022-12-18T00:56:31;11.10;;;6.85;;
29838;SDS011;18669;53.356;-1.464;2022-12-18T00:58:57;9.63;;;6.70;;
29838;SDS011;18669;53.356;-1.464;2022-12-18T01:01:23;15.27;;;7.28;;
29838;SDS011;18669;53.356;-1.464;2022-12-18T01:03:49;14.13;;;7.93;;
29838;SDS011;18669;53.356;-1.464;2022-12-18T01:06:16;10.93;;;7.53;;
29838;SDS011;18669;53.356;-1.464;2022-12-18T01:08:42;14.98;;;8.23;;
29838;SDS011;18669;53.356;-1.464;2022-12-18T01:11:10;13.25;;;8.27;;
29838;SDS011;18669;53.356;-1.464;2022-12-18T01:13:41;13.18;;;8.05;;
29838;SDS011;18669;53.356;-1.464;2022-12-18T01:16:10;15.02;;;7.85;;
29838;SDS011;18669;53.356;-1.464;2022-12-18T01:18:37;15.48;;;9.13;;
29838;SDS011;18669;53.356;-1.464;2022-12-18T01:21:07;13.35;;;8.43;;
29838;SDS011;18669;53.356;-1.464;2022-12-18T01:23:34;13.80;;;8.55;;
29838;SDS011;18669;53.356;-1.464;2022-12-18T01:26:04;12.23;;;8.00;;
29838;SDS011;18669;53.356;-1.464;2022-12-18T01:28:32;14.60;;;8.05;;
29838;SDS011;18669;53.356;-1.464;2022-12-18T01:31:08;14.80;;;8.35;;
29838;SDS011;18669;53.356;-1.464;2022-12-18T01:33:39;19.25;;;8.52;;
29838;SDS011;18669;53.356;-1.464;2022-12-18T01:36:05;14.88;;;8.38;;
29838;SDS011;18669;53.356;-1.464;2022-12-18T01:38:31;15.05;;;9.10;;
29838;SDS011;18669;53.356;-1.464;2022-12-18T01:40:58;17.08;;;8.60;;
29838;SDS011;18669;53.356;-1.464;2022-12-18T01:46:35;12.70;;;7.85;;
29838;SDS011;18669;53.356;-1.464;2022-12-18T01:49:02;16.73;;;8.68;;
29838;SDS011;18669;53.356;-1.464;2022-12-18T01:51:29;19.42;;;8.63;;
29838;SDS011;18669;53.356;-1.464;2022-12-18T01:53:56;14.23;;;8.20;;
29838;SDS011;18669;53.356;-1.464;2022-12-18T01:56:23;17.65;;;9.13;;
29838;SDS011;18669;53.356;-1.464;2022-12-18T01:58:59;13.93;;;9.07;;
29838;SDS011;18669;53.356;-1.464;2022-12-18T02:01:31;16.83;;;8.77;;
29838;SDS011;18669;53.356;-1.464;2022-12-18T02:06:52;14.20;;;8.57;;
29838;SDS011;18669;53.356;-1.464;2022-12-18T02:09:37;13.13;;;8.05;;
29838;SDS011;18669;53.356;-1.464;2022-12-18T02:12:19;14.55;;;7.60;;
29838;SDS011;18669;53.356;-1.464;2022-12-18T02:14:55;16.45;;;8.40;;
29838;SDS011;18669;53.356;-1.464;2022-12-18T02:17:31;16.88;;;9.68;;
29838;SDS011;18669;53.356;-1.464;2022-12-18T02:25:42;12.63;;;8.57;;
29838;SDS011;18669;53.356;-1.464;2022-12-18T02:28:26;17.10;;;10.35;;
29838;SDS011;18669;53.356;-1.464;2022-12-18T02:30:56;17.92;;;10.27;;
29838;SDS011;18669;53.356;-1.464;2022-12-18T02:33:27;17.23;;;10.27;;
29838;SDS011;18669;53.356;-1.464;2022-12-18T02:35:57;19.83;;;9.70;;
29838;SDS011;18669;53.356;-1.464;2022-12-18T02:38:25;20.50;;;10.98;;
29838;SDS011;18669;53.356;-1.464;2022-12-18T02:40:53;17.83;;;10.18;;
29838;SDS011;18669;53.356;-1.464;2022-12-18T02:43:19;18.73;;;10.38;;
29838;SDS011;18669;53.356;-1.464;2022-12-18T02:45:50;20.55;;;11.80;;
29838;SDS011;18669;53.356;-1.464;2022-12-18T02:48:24;22.48;;;10.75;;
29838;SDS011;18669;53.356;-1.464;2022-12-18T02:51:02;18.05;;;9.95;;
29838;SDS011;18669;53.356;-1.464;2022-12-18T02:53:33;21.50;;;10.75;;
29838;SDS011;18669;53.356;-1.464;2022-12-18T02:59:01;22.15;;;11.77;;
29838;SDS011;18669;53.356;-1.464;2022-12-18T03:01:42;16.85;;;10.70;;
29838;SDS011;18669;53.356;-1.464;2022-12-18T03:06:56;16.65;;;10.82;;
29838;SDS011;18669;53.356;-1.464;2022-12-18T03:09:34;21.30;;;11.85;;
29838;SDS011;18669;53.356;-1.464;2022-12-18T03:12:09;15.90;;;10.27;;
29838;SDS011;18669;53.356;-1.464;2022-12-18T03:17:32;20.08;;;11.23;;
29838;SDS011;18669;53.356;-1.464;2022-12-18T03:20:03;23.35;;;12.13;;
29838;SDS011;18669;53.356;-1.464;2022-12-18T03:22:35;18.03;;;11.43;;
29838;SDS011;18669;53.356;-1.464;2022-12-18T03:25:06;19.42;;;13.23;;
29838;SDS011;18669;53.356;-1.464;2022-12-18T03:27:36;23.92;;;11.98;;
29838;SDS011;18669;53.356;-1.464;2022-12-18T03:30:08;20.90;;;13.27;;
29838;SDS011;18669;53.356;-1.464;2022-12-18T03:32:44;23.33;;;13.25;;
29838;SDS011;18669;53.356;-1.464;2022-12-18T03:35:13;22.50;;;12.68;;
29838;SDS011;18669;53.356;-1.464;2022-12-18T03:37:47;23.40;;;13.45;;
29838;SDS011;18669;53.356;-1.464;2022-12-18T03:42:46;23.08;;;12.88;;
29838;SDS011;18669;53.356;-1.464;2022-12-18T03:47:53;22.60;;;13.00;;
29838;SDS011;18669;53.356;-1.464;2022-12-18T03:55:53;22.90;;;12.02;;
29838;SDS011;18669;53.356;-1.464;2022-12-18T03:58:22;22.50;;;13.80;;
29838;SDS011;18669;53.356;-1.464;2022-12-18T04:00:51;23.17;;;12.55;;
29838;SDS011;18669;53.356;-1.464;2022-12-18T04:03:20;19.17;;;11.80;;
29838;SDS011;18669;53.356;-1.464;2022-12-18T04:05:48;25.83;;;12.30;;
29838;SDS011;18669;53.356;-1.464;2022-12-18T04:08:17;22.67;;;12.63;;
29838;SDS011;18669;53.356;-1.464;2022-12-18T04:10:45;22.40;;;12.52;;
29838;SDS011;18669;53.356;-1.464;2022-12-18T04:13:12;26.52;;;13.23;;
29838;SDS011;18669;53.356;-1.464;2022-12-18T04:15:38;22.85;;;13.07;;
29838;SDS011;18669;53.356;-1.464;2022-12-18T04:18:05;24.98;;;12.75;;
29838;SDS011;18669;53.356;-1.464;2022-12-18T04:20:31;27.23;;;12.32;;
29838;SDS011;18669;53.356;-1.464;2022-12-18T04:22:57;20.25;;;12.32;;
29838;SDS011;18669;53.356;-1.464;2022-12-18T04:25:23;20.83;;;12.65;;
29838;SDS011;18669;53.356;-1.464;2022-12-18T04:27:49;22.17;;;13.30;;
29838;SDS011;18669;53.356;-1.464;2022-12-18T04:30:15;25.30;;;13.00;;
29838;SDS011;18669;53.356;-1.464;2022-12-18T04:32:42;23.55;;;13.63;;
29838;SDS011;18669;53.356;-1.464;2022-12-18T04:35:08;23.75;;;12.77;;
29838;SDS011;18669;53.356;-1.464;2022-12-18T04:37:36;26.27;;;12.70;;
29838;SDS011;18669;53.356;-1.464;2022-12-18T04:40:02;23.15;;;13.23;;
29838;SDS011;18669;53.356;-1.464;2022-12-18T04:42:29;27.70;;;14.13;;
29838;SDS011;18669;53.356;-1.464;2022-12-18T04:44:55;22.50;;;13.27;;
29838;SDS011;18669;53.356;-1.464;2022-12-18T04:47:21;25.48;;;12.77;;
29838;SDS011;18669;53.356;-1.464;2022-12-18T04:49:49;25.48;;;13.80;;
29838;SDS011;18669;53.356;-1.464;2022-12-18T04:52:15;25.67;;;12.85;;
29838;SDS011;18669;53.356;-1.464;2022-12-18T04:54:41;25.60;;;13.50;;
29838;SDS011;18669;53.356;-1.464;2022-12-18T04:57:07;23.90;;;13.02;;
29838;SDS011;18669;53.356;-1.464;2022-12-18T04:59:33;26.60;;;13.00;;
29838;SDS011;18669;53.356;-1.464;2022-12-18T05:01:59;26.88;;;12.02;;
29838;SDS011;18669;53.356;-1.464;2022-12-18T05:04:25;23.45;;;13.15;;
29838;SDS011;18669;53.356;-1.464;2022-12-18T05:06:52;24.65;;;13.27;;
29838;SDS011;18669;53.356;-1.464;2022-12-18T05:09:18;24.52;;;11.80;;
29838;SDS011;18669;53.356;-1.464;2022-12-18T05:11:45;25.33;;;13.32;;
29838;SDS011;18669;53.356;-1.464;2022-12-18T05:14:12;32.92;;;14.77;;
29838;SDS011;18669;53.356;-1.464;2022-12-18T05:16:38;30.23;;;13.63;;
29838;SDS011;18669;53.356;-1.464;2022-12-18T05:19:04;29.05;;;14.07;;
29838;SDS011;18669;53.356;-1.464;2022-12-18T05:21:30;32.28;;;15.38;;
29838;SDS011;18669;53.356;-1.464;2022-12-18T05:23:56;35.75;;;15.27;;
29838;SDS011;18669;53.356;-1.464;2022-12-18T05:26:24;31.48;;;14.43;;
29838;SDS011;18669;53.356;-1.464;2022-12-18T05:28:50;28.02;;;15.30;;
29838;SDS011;18669;53.356;-1.464;2022-12-18T05:31:16;35.80;;;15.57;;
29838;SDS011;18669;53.356;-1.464;2022-12-18T05:33:43;39.85;;;15.80;;
29838;SDS011;18669;53.356;-1.464;2022-12-18T05:38:38;35.75;;;15.07;;
29838;SDS011;18669;53.356;-1.464;2022-12-18T05:41:06;34.97;;;16.75;;
29838;SDS011;18669;53.356;-1.464;2022-12-18T05:43:34;34.78;;;16.15;;
29838;SDS011;18669;53.356;-1.464;2022-12-18T05:46:04;38.97;;;15.52;;
29838;SDS011;18669;53.356;-1.464;2022-12-18T05:48:37;33.80;;;16.05;;
29838;SDS011;18669;53.356;-1.464;2022-12-18T05:51:04;34.15;;;15.35;;
29838;SDS011;18669;53.356;-1.464;2022-12-18T05:53:34;33.97;;;16.45;;
29838;SDS011;18669;53.356;-1.464;2022-12-18T05:56:02;34.13;;;16.88;;
29838;SDS011;18669;53.356;-1.464;2022-12-18T05:58:30;34.92;;;16.92;;
29838;SDS011;18669;53.356;-1.464;2022-12-18T06:00:56;38.72;;;17.83;;
29838;SDS011;18669;53.356;-1.464;2022-12-18T06:03:23;35.72;;;17.38;;
29838;SDS011;18669;53.356;-1.464;2022-12-18T06:05:49;37.25;;;17.40;;
29838;SDS011;18669;53.356;-1.464;2022-12-18T06:08:16;39.67;;;16.95;;
29838;SDS011;18669;53.356;-1.464;2022-12-18T06:10:42;48.05;;;17.85;;
29838;SDS011;18669;53.356;-1.464;2022-12-18T06:13:14;36.55;;;17.58;;
29838;SDS011;18669;53.356;-1.464;2022-12-18T06:15:40;39.53;;;17.60;;
29838;SDS011;18669;53.356;-1.464;2022-12-18T06:18:07;38.60;;;18.75;;
29838;SDS011;18669;53.356;-1.464;2022-12-18T06:20:33;39.17;;;17.58;;
29838;SDS011;18669;53.356;-1.464;2022-12-18T06:23:02;44.15;;;17.20;;
29838;SDS011;18669;53.356;-1.464;2022-12-18T06:25:28;36.95;;;17.95;;
29838;SDS011;18669;53.356;-1.464;2022-12-18T06:27:54;40.88;;;18.65;;
29838;SDS011;18669;53.356;-1.464;2022-12-18T06:30:20;48.15;;;19.33;;
29838;SDS011;18669;53.356;-1.464;2022-12-18T06:35:13;42.30;;;17.90;;
29838;SDS011;18669;53.356;-1.464;2022-12-18T06:37:39;41.28;;;17.75;;
29838;SDS011;18669;53.356;-1.464;2022-12-18T06:40:06;37.28;;;17.27;;
29838;SDS011;18669;53.356;-1.464;2022-12-18T06:42:32;41.45;;;18.25;;
29838;SDS011;18669;53.356;-1.464;2022-12-18T06:47:27;38.42;;;17.38;;
29838;SDS011;18669;53.356;-1.464;2022-12-18T06:49:53;42.95;;;18.50;;
29838;SDS011;18669;53.356;-1.464;2022-12-18T06:52:19;41.92;;;18.73;;
29838;SDS011;18669;53.356;-1.464;2022-12-18T06:54:46;49.10;;;19.35;;
29838;SDS011;18669;53.356;-1.464;2022-12-18T06:57:12;45.28;;;21.15;;
29838;SDS011;18669;53.356;-1.464;2022-12-18T06:59:39;50.92;;;21.67;;
29838;SDS011;18669;53.356;-1.464;2022-12-18T07:02:05;47.00;;;21.05;;
29838;SDS011;18669;53.356;-1.464;2022-12-18T07:04:31;43.67;;;20.55;;
29838;SDS011;18669;53.356;-1.464;2022-12-18T07:06:58;43.90;;;20.90;;
29838;SDS011;18669;53.356;-1.464;2022-12-18T07:09:25;50.80;;;21.48;;
29838;SDS011;18669;53.356;-1.464;2022-12-18T07:11:51;46.53;;;20.60;;
29838;SDS011;18669;53.356;-1.464;2022-12-18T07:14:17;44.70;;;19.70;;
29838;SDS011;18669;53.356;-1.464;2022-12-18T07:16:43;50.72;;;22.05;;
29838;SDS011;18669;53.356;-1.464;2022-12-18T07:19:09;44.13;;;20.80;;
29838;SDS011;18669;53.356;-1.464;2022-12-18T07:21:35;49.03;;;20.52;;
29838;SDS011;18669;53.356;-1.464;2022-12-18T07:24:01;49.65;;;21.90;;
29838;SDS011;18669;53.356;-1.464;2022-12-18T07:26:28;45.65;;;19.15;;
29838;SDS011;18669;53.356;-1.464;2022-12-18T07:28:54;50.53;;;21.77;;
29838;SDS011;18669;53.356;-1.464;2022-12-18T07:31:23;47.83;;;20.25;;
29838;SDS011;18669;53.356;-1.464;2022-12-18T07:33:50;50.95;;;22.65;;
29838;SDS011;18669;53.356;-1.464;2022-12-18T07:36:17;48.83;;;20.35;;
29838;SDS011;18669;53.356;-1.464;2022-12-18T07:38:46;62.72;;;22.15;;
29838;SDS011;18669;53.356;-1.464;2022-12-18T07:41:13;49.78;;;21.65;;
29838;SDS011;18669;53.356;-1.464;2022-12-18T07:43:39;50.97;;;21.02;;
29838;SDS011;18669;53.356;-1.464;2022-12-18T07:46:06;49.53;;;21.38;;
29838;SDS011;18669;53.356;-1.464;2022-12-18T07:48:33;53.10;;;20.55;;
29838;SDS011;18669;53.356;-1.464;2022-12-18T07:51:00;53.20;;;21.23;;
29838;SDS011;18669;53.356;-1.464;2022-12-18T07:53:28;49.20;;;21.77;;
29838;SDS011;18669;53.356;-1.464;2022-12-18T07:55:55;48.28;;;20.98;;
29838;SDS011;18669;53.356;-1.464;2022-12-18T07:58:29;49.90;;;21.05;;
29838;SDS011;18669;53.356;-1.464;2022-12-18T08:01:02;57.90;;;20.75;;
29838;SDS011;18669;53.356;-1.464;2022-12-18T08:03:35;48.95;;;22.95;;
29838;SDS011;18669;53.356;-1.464;2022-12-18T08:06:05;47.72;;;19.83;;
29838;SDS011;18669;53.356;-1.464;2022-12-18T08:08:33;51.83;;;21.50;;
29838;SDS011;18669;53.356;-1.464;2022-12-18T08:11:00;47.72;;;20.38;;
29838;SDS011;18669;53.356;-1.464;2022-12-18T08:13:27;48.95;;;21.05;;
29838;SDS011;18669;53.356;-1.464;2022-12-18T08:16:01;53.10;;;20.65;;
29838;SDS011;18669;53.356;-1.464;2022-12-18T08:18:29;47.75;;;20.13;;
29838;SDS011;18669;53.356;-1.464;2022-12-18T08:21:07;46.90;;;21.27;;
29838;SDS011;18669;53.356;-1.464;2022-12-18T08:23:44;52.08;;;20.05;;
29838;SDS011;18669;53.356;-1.464;2022-12-18T08:26:11;43.80;;;19.42;;
29838;SDS011;18669;53.356;-1.464;2022-12-18T08:28:37;45.60;;;19.25;;
29838;SDS011;18669;53.356;-1.464;2022-12-18T08:31:03;47.95;;;19.23;;
29838;SDS011;18669;53.356;-1.464;2022-12-18T08:33:30;45.78;;;19.20;;
29838;SDS011;18669;53.356;-1.464;2022-12-18T08:35:57;55.33;;;19.77;;
29838;SDS011;18669;53.356;-1.464;2022-12-18T08:38:24;42.90;;;19.63;;
29838;SDS011;18669;53.356;-1.464;2022-12-18T08:40:57;44.08;;;19.30;;
29838;SDS011;18669;53.356;-1.464;2022-12-18T08:43:27;45.00;;;18.92;;
29838;SDS011;18669;53.356;-1.464;2022-12-18T08:46:15;44.25;;;18.42;;
29838;SDS011;18669;53.356;-1.464;2022-12-18T08:48:42;43.13;;;17.90;;
29838;SDS011;18669;53.356;-1.464;2022-12-18T08:51:09;47.35;;;18.48;;
29838;SDS011;18669;53.356;-1.464;2022-12-18T08:53:36;47.67;;;18.17;;
29838;SDS011;18669;53.356;-1.464;2022-12-18T08:56:03;42.97;;;17.80;;
29838;SDS011;18669;53.356;-1.464;2022-12-18T08:58:29;49.78;;;18.40;;
29838;SDS011;18669;53.356;-1.464;2022-12-18T09:01:06;46.90;;;18.50;;
29838;SDS011;18669;53.356;-1.464;2022-12-18T09:03:36;47.88;;;18.58;;
29838;SDS011;18669;53.356;-1.464;2022-12-18T09:06:03;47.65;;;17.75;;
29838;SDS011;18669;53.356;-1.464;2022-12-18T09:08:30;41.33;;;17.35;;
29838;SDS011;18669;53.356;-1.464;2022-12-18T09:11:09;44.97;;;17.48;;
29838;SDS011;18669;53.356;-1.464;2022-12-18T09:13:38;47.72;;;18.58;;
29838;SDS011;18669;53.356;-1.464;2022-12-18T09:16:05;48.20;;;16.52;;
29838;SDS011;18669;53.356;-1.464;2022-12-18T09:18:31;44.05;;;18.10;;
29838;SDS011;18669;53.356;-1.464;2022-12-18T09:20:58;42.08;;;17.05;;
29838;SDS011;18669;53.356;-1.464;2022-12-18T09:23:24;41.75;;;17.20;;
29838;SDS011;18669;53.356;-1.464;2022-12-18T09:25:50;40.85;;;16.60;;
29838;SDS011;18669;53.356;-1.464;2022-12-18T09:28:17;39.15;;;16.77;;
29838;SDS011;18669;53.356;-1.464;2022-12-18T09:30:47;36.30;;;16.35;;
29838;SDS011;18669;53.356;-1.464;2022-12-18T09:33:14;39.10;;;16.60;;
29838;SDS011;18669;53.356;-1.464;2022-12-18T09:35:42;34.00;;;15.43;;
29838;SDS011;18669;53.356;-1.464;2022-12-18T09:38:13;46.92;;;16.70;;
29838;SDS011;18669;53.356;-1.464;2022-12-18T09:40:53;40.90;;;17.17;;
29838;SDS011;18669;53.356;-1.464;2022-12-18T09:43:45;43.03;;;16.02;;
29838;SDS011;18669;53.356;-1.464;2022-12-18T09:46:35;43.92;;;17.70;;
29838;SDS011;18669;53.356;-1.464;2022-12-18T09:49:11;41.50;;;16.92;;
29838;SDS011;18669;53.356;-1.464;2022-12-18T09:51:45;39.28;;;16.10;;
29838;SDS011;18669;53.356;-1.464;2022-12-18T09:54:20;37.65;;;15.10;;
29838;SDS011;18669;53.356;-1.464;2022-12-18T09:56:50;39.30;;;15.50;;
29838;SDS011;18669;53.356;-1.464;2022-12-18T09:59:22;35.13;;;15.05;;
29838;SDS011;18669;53.356;-1.464;2022-12-18T10:01:53;37.60;;;14.52;;
29838;SDS011;18669;53.356;-1.464;2022-12-18T10:04:20;37.72;;;14.52;;
29838;SDS011;18669;53.356;-1.464;2022-12-18T10:15:01;26.23;;;13.02;;
29838;SDS011;18669;53.356;-1.464;2022-12-18T10:17:42;34.53;;;14.65;;
29838;SDS011;18669;53.356;-1.464;2022-12-18T10:23:10;31.20;;;13.93;;
29838;SDS011;18669;53.356;-1.464;2022-12-18T10:28:25;35.30;;;14.32;;
29838;SDS011;18669;53.356;-1.464;2022-12-18T10:30:56;30.10;;;13.77;;
29838;SDS011;18669;53.356;-1.464;2022-12-18T10:33:28;30.90;;;14.10;;
29838;SDS011;18669;53.356;-1.464;2022-12-18T10:36:01;31.05;;;14.50;;
29838;SDS011;18669;53.356;-1.464;2022-12-18T10:38:31;32.17;;;14.48;;
29838;SDS011;18669;53.356;-1.464;2022-12-18T10:41:08;31.80;;;14.50;;
29838;SDS011;18669;53.356;-1.464;2022-12-18T10:44:17;39.75;;;13.48;;
29838;SDS011;18669;53.356;-1.464;2022-12-18T10:46:50;29.65;;;13.82;;
29838;SDS011;18669;53.356;-1.464;2022-12-18T10:49:31;36.85;;;14.75;;
29838;SDS011;18669;53.356;-1.464;2022-12-18T10:52:24;36.03;;;14.50;;
29838;SDS011;18669;53.356;-1.464;2022-12-18T10:55:04;36.90;;;15.25;;
29838;SDS011;18669;53.356;-1.464;2022-12-18T10:57:46;33.72;;;14.98;;
29838;SDS011;18669;53.356;-1.464;2022-12-18T11:02:59;39.50;;;16.25;;
29838;SDS011;18669;53.356;-1.464;2022-12-18T11:05:31;29.98;;;14.23;;
29838;SDS011;18669;53.356;-1.464;2022-12-18T11:08:04;37.25;;;15.55;;
29838;SDS011;18669;53.356;-1.464;2022-12-18T11:10:46;30.73;;;14.23;;
29838;SDS011;18669;53.356;-1.464;2022-12-18T11:13:18;34.38;;;14.93;;
29838;SDS011;18669;53.356;-1.464;2022-12-18T11:15:52;32.60;;;15.38;;
29838;SDS011;18669;53.356;-1.464;2022-12-18T11:18:33;35.20;;;15.07;;
29838;SDS011;18669;53.356;-1.464;2022-12-18T11:21:12;40.00;;;15.23;;
29838;SDS011;18669;53.356;-1.464;2022-12-18T11:23:51;30.48;;;13.05;;
29838;SDS011;18669;53.356;-1.464;2022-12-18T11:26:22;33.33;;;15.05;;
29838;SDS011;18669;53.356;-1.464;2022-12-18T11:29:09;38.53;;;14.95;;
29838;SDS011;18669;53.356;-1.464;2022-12-18T11:31:45;32.72;;;13.85;;
29838;SDS011;18669;53.356;-1.464;2022-12-18T11:34:22;36.47;;;16.63;;
29838;SDS011;18669;53.356;-1.464;2022-12-18T11:36:59;30.00;;;13.88;;
29838;SDS011;18669;53.356;-1.464;2022-12-18T11:39:34;35.22;;;18.58;;
29838;SDS011;18669;53.356;-1.464;2022-12-18T11:42:09;27.00;;;13.45;;
29838;SDS011;18669;53.356;-1.464;2022-12-18T11:44:54;31.48;;;13.45;;
29838;SDS011;18669;53.356;-1.464;2022-12-18T11:50:49;37.30;;;15.65;;
29838;SDS011;18669;53.356;-1.464;2022-12-18T11:53:18;34.90;;;14.73;;
29838;SDS011;18669;53.356;-1.464;2022-12-18T12:00:56;29.20;;;13.70;;
29838;SDS011;18669;53.356;-1.464;2022-12-18T12:03:41;28.80;;;13.38;;
29838;SDS011;18669;53.356;-1.464;2022-12-18T12:17:22;33.30;;;13.23;;
29838;SDS011;18669;53.356;-1.464;2022-12-18T12:20:08;31.58;;;14.35;;
29838;SDS011;18669;53.356;-1.464;2022-12-18T12:22:52;31.07;;;14.53;;
29838;SDS011;18669;53.356;-1.464;2022-12-18T12:31:53;33.72;;;13.57;;
29838;SDS011;18669;53.356;-1.464;2022-12-18T12:34:09;30.60;;;14.57;;
29838;SDS011;18669;53.356;-1.464;2022-12-18T12:39:11;26.50;;;13.15;;
29838;SDS011;18669;53.356;-1.464;2022-12-18T12:41:43;33.65;;;15.75;;
29838;SDS011;18669;53.356;-1.464;2022-12-18T12:44:37;32.45;;;15.38;;
29838;SDS011;18669;53.356;-1.464;2022-12-18T12:47:12;33.90;;;15.57;;
29838;SDS011;18669;53.356;-1.464;2022-12-18T12:49:44;35.20;;;15.55;;
29838;SDS011;18669;53.356;-1.464;2022-12-18T12:54:54;36.00;;;16.17;;
29838;SDS011;18669;53.356;-1.464;2022-12-18T12:57:23;32.45;;;15.43;;
29838;SDS011;18669;53.356;-1.464;2022-12-18T13:00:01;31.45;;;15.43;;
29838;SDS011;18669;53.356;-1.464;2022-12-18T13:02:33;32.88;;;16.90;;
29838;SDS011;18669;53.356;-1.464;2022-12-18T13:08:07;33.17;;;15.13;;
29838;SDS011;18669;53.356;-1.464;2022-12-18T13:10:38;33.40;;;14.57;;
29838;SDS011;18669;53.356;-1.464;2022-12-18T13:13:07;32.40;;;15.57;;
29838;SDS011;18669;53.356;-1.464;2022-12-18T13:23:50;30.27;;;14.60;;
29838;SDS011;18669;53.356;-1.464;2022-12-18T13:34:09;31.75;;;15.23;;
29838;SDS011;18669;53.356;-1.464;2022-12-18T13:36:39;29.55;;;15.02;;
29838;SDS011;18669;53.356;-1.464;2022-12-18T13:39:09;38.00;;;16.02;;
29838;SDS011;18669;53.356;-1.464;2022-12-18T13:44:35;36.90;;;15.65;;
29838;SDS011;18669;53.356;-1.464;2022-12-18T13:47:03;31.92;;;15.60;;
29838;SDS011;18669;53.356;-1.464;2022-12-18T13:49:38;32.28;;;15.63;;
29838;SDS011;18669;53.356;-1.464;2022-12-18T13:52:22;36.35;;;16.27;;
29838;SDS011;18669;53.356;-1.464;2022-12-18T13:54:51;35.90;;;16.63;;
29838;SDS011;18669;53.356;-1.464;2022-12-18T13:57:33;37.70;;;16.73;;
29838;SDS011;18669;53.356;-1.464;2022-12-18T14:02:54;33.38;;;16.00;;
29838;SDS011;18669;53.356;-1.464;2022-12-18T14:05:22;34.75;;;17.45;;
29838;SDS011;18669;53.356;-1.464;2022-12-18T14:08:08;31.27;;;15.30;;
29838;SDS011;18669;53.356;-1.464;2022-12-18T14:10:45;33.72;;;16.88;;
29838;SDS011;18669;53.356;-1.464;2022-12-18T14:13:23;35.63;;;16.58;;
29838;SDS011;18669;53.356;-1.464;2022-12-18T14:15:54;42.42;;;18.15;;
29838;SDS011;18669;53.356;-1.464;2022-12-18T14:21:22;34.88;;;16.17;;
29838;SDS011;18669;53.356;-1.464;2022-12-18T14:26:42;39.28;;;16.58;;
29838;SDS011;18669;53.356;-1.464;2022-12-18T14:29:25;43.17;;;17.58;;
29838;SDS011;18669;53.356;-1.464;2022-12-18T14:32:08;42.45;;;17.15;;
29838;SDS011;18669;53.356;-1.464;2022-12-18T14:34:35;38.40;;;17.20;;
29838;SDS011;18669;53.356;-1.464;2022-12-18T14:39:28;35.05;;;14.93;;
29838;SDS011;18669;53.356;-1.464;2022-12-18T14:41:54;42.35;;;18.05;;
29838;SDS011;18669;53.356;-1.464;2022-12-18T14:44:20;43.17;;;18.42;;
29838;SDS011;18669;53.356;-1.464;2022-12-18T14:46:49;37.58;;;16.73;;
29838;SDS011;18669;53.356;-1.464;2022-12-18T14:49:24;37.25;;;17.30;;
29838;SDS011;18669;53.356;-1.464;2022-12-18T14:51:55;40.08;;;15.13;;
29838;SDS011;18669;53.356;-1.464;2022-12-18T14:54:27;34.08;;;16.60;;
29838;SDS011;18669;53.356;-1.464;2022-12-18T14:57:04;37.97;;;17.85;;
29838;SDS011;18669;53.356;-1.464;2022-12-18T14:59:51;47.80;;;19.15;;
29838;SDS011;18669;53.356;-1.464;2022-12-18T15:02:27;44.70;;;17.60;;
29838;SDS011;18669;53.356;-1.464;2022-12-18T15:05:02;44.13;;;17.77;;
29838;SDS011;18669;53.356;-1.464;2022-12-18T15:07:52;38.08;;;16.90;;
29838;SDS011;18669;53.356;-1.464;2022-12-18T15:10:21;59.97;;;20.70;;
29838;SDS011;18669;53.356;-1.464;2022-12-18T15:20:50;37.58;;;17.58;;
29838;SDS011;18669;53.356;-1.464;2022-12-18T15:23:24;37.95;;;16.92;;
29838;SDS011;18669;53.356;-1.464;2022-12-18T15:25:55;37.30;;;17.25;;
29838;SDS011;18669;53.356;-1.464;2022-12-18T15:30:59;29.63;;;15.95;;
29838;SDS011;18669;53.356;-1.464;2022-12-18T15:36:18;32.88;;;15.60;;
29838;SDS011;18669;53.356;-1.464;2022-12-18T15:38:46;36.85;;;16.42;;
29838;SDS011;18669;53.356;-1.464;2022-12-18T15:41:14;31.13;;;15.48;;
29838;SDS011;18669;53.356;-1.464;2022-12-18T15:43:42;34.47;;;16.30;;
29838;SDS011;18669;53.356;-1.464;2022-12-18T15:46:11;35.35;;;17.83;;
29838;SDS011;18669;53.356;-1.464;2022-12-18T15:48:42;33.88;;;15.05;;
29838;SDS011;18669;53.356;-1.464;2022-12-18T15:53:44;30.35;;;16.23;;
29838;SDS011;18669;53.356;-1.464;2022-12-18T15:56:12;35.50;;;15.75;;
29838;SDS011;18669;53.356;-1.464;2022-12-18T15:58:58;30.33;;;15.15;;
29838;SDS011;18669;53.356;-1.464;2022-12-18T16:01:29;32.05;;;15.40;;
29838;SDS011;18669;53.356;-1.464;2022-12-18T16:03:57;33.38;;;16.23;;
29838;SDS011;18669;53.356;-1.464;2022-12-18T16:06:23;29.33;;;15.10;;
29838;SDS011;18669;53.356;-1.464;2022-12-18T16:11:26;31.92;;;14.55;;
29838;SDS011;18669;53.356;-1.464;2022-12-18T16:14:15;28.00;;;14.95;;
29838;SDS011;18669;53.356;-1.464;2022-12-18T16:16:42;29.08;;;15.50;;
29838;SDS011;18669;53.356;-1.464;2022-12-18T16:19:09;31.95;;;15.43;;
29838;SDS011;18669;53.356;-1.464;2022-12-18T16:21:35;25.95;;;14.32;;
29838;SDS011;18669;53.356;-1.464;2022-12-18T16:26:27;26.60;;;14.20;;
29838;SDS011;18669;53.356;-1.464;2022-12-18T16:28:53;27.92;;;14.18;;
29838;SDS011;18669;53.356;-1.464;2022-12-18T16:31:19;27.83;;;14.88;;
29838;SDS011;18669;53.356;-1.464;2022-12-18T16:33:46;29.25;;;14.70;;
29838;SDS011;18669;53.356;-1.464;2022-12-18T16:36:12;28.08;;;14.70;;
29838;SDS011;18669;53.356;-1.464;2022-12-18T16:38:39;23.95;;;13.00;;
29838;SDS011;18669;53.356;-1.464;2022-12-18T16:41:15;29.38;;;14.43;;
29838;SDS011;18669;53.356;-1.464;2022-12-18T16:43:59;29.38;;;14.15;;
29838;SDS011;18669;53.356;-1.464;2022-12-18T16:46:26;29.23;;;15.05;;
29838;SDS011;18669;53.356;-1.464;2022-12-18T16:48:52;32.85;;;15.35;;
29838;SDS011;18669;53.356;-1.464;2022-12-18T16:51:18;33.30;;;15.30;;
29838;SDS011;18669;53.356;-1.464;2022-12-18T16:53:45;30.73;;;15.50;;